createdAt,value
2019-05-20T00:00:52.529Z,18.30
2019-05-20T00:03:21.286Z,18.30
2019-05-20T00:05:50.147Z,18.30
2019-05-20T00:08:19.004Z,18.30
2019-05-20T00:10:47.754Z,18.30
2019-05-20T00:13:16.465Z,18.30
2019-05-20T00:15:45.178Z,18.30
2019-05-20T00:18:13.912Z,18.30
2019-05-20T00:20:42.631Z,18.30
2019-05-20T00:23:11.358Z,18.30
2019-05-20T00:25:40.078Z,18.30
2019-05-20T00:28:08.809Z,18.30
2019-05-20T00:30:37.534Z,18.30
2019-05-20T00:33:06.261Z,18.30
2019-05-20T00:35:35.421Z,18.30
2019-05-20T00:38:04.192Z,18.30
2019-05-20T00:40:32.923Z,18.40
2019-05-20T00:43:01.657Z,18.30
2019-05-20T00:45:31.752Z,18.30
2019-05-20T00:48:03.541Z,18.20
2019-05-20T00:50:33.164Z,18.20
2019-05-20T00:53:01.884Z,18.20
2019-05-20T00:55:32.429Z,18.30
2019-05-20T00:58:01.203Z,18.40
2019-05-20T01:00:30.194Z,18.40
2019-05-20T01:02:58.986Z,18.40
2019-05-20T01:05:28.973Z,18.50
2019-05-20T01:07:57.639Z,18.50
2019-05-20T01:10:26.373Z,18.50
2019-05-20T01:12:55.207Z,18.50
2019-05-20T01:15:23.920Z,18.60
2019-05-20T01:17:52.644Z,18.60
2019-05-20T01:20:21.772Z,18.70
2019-05-20T01:22:50.540Z,18.70
2019-05-20T01:25:19.255Z,18.70
2019-05-20T01:27:48.111Z,18.70
2019-05-20T01:30:17.620Z,18.80
2019-05-20T01:32:48.654Z,18.80
2019-05-20T01:35:17.377Z,18.70
2019-05-20T01:37:46.167Z,18.70
2019-05-20T01:40:15.211Z,18.70
2019-05-20T01:42:44.014Z,18.70
2019-05-20T01:45:13.146Z,18.70
2019-05-20T01:47:42.457Z,18.60
2019-05-20T01:50:14.264Z,18.70
2019-05-20T01:52:42.975Z,18.70
2019-05-20T01:55:12.527Z,18.70
2019-05-20T01:57:41.247Z,18.70
2019-05-20T02:00:10.930Z,18.60
2019-05-20T02:02:39.641Z,18.70
2019-05-20T02:05:08.813Z,18.60
2019-05-20T02:07:37.531Z,18.60
2019-05-20T02:10:09.618Z,18.60
2019-05-20T02:12:39.656Z,18.50
2019-05-20T02:15:10.664Z,18.50
2019-05-20T02:17:39.413Z,18.50
2019-05-20T02:20:08.431Z,18.40
2019-05-20T02:22:37.113Z,18.40
2019-05-20T02:25:06.533Z,18.30
2019-05-20T02:27:35.321Z,18.20
2019-05-20T02:30:08.084Z,18.20
2019-05-20T02:32:36.800Z,18.00
2019-05-20T02:35:06.834Z,18.00
2019-05-20T02:37:35.819Z,17.80
2019-05-20T02:40:07.544Z,17.80
2019-05-20T02:42:36.234Z,17.70
2019-05-20T02:45:07.415Z,17.70
2019-05-20T02:47:36.135Z,17.70
2019-05-20T02:50:06.254Z,17.60
2019-05-20T02:52:35.493Z,17.60
2019-05-20T02:55:06.176Z,17.60
2019-05-20T02:57:35.498Z,17.60
2019-05-20T03:00:06.831Z,17.60
2019-05-20T03:02:35.554Z,17.40
2019-05-20T03:05:06.043Z,17.30
2019-05-20T03:07:34.836Z,17.30
2019-05-20T03:10:04.597Z,17.20
2019-05-20T03:12:33.321Z,17.10
2019-05-20T03:15:02.043Z,17.00
2019-05-20T03:17:30.757Z,16.80
2019-05-20T03:19:59.582Z,16.70
2019-05-20T03:22:28.285Z,16.50
2019-05-20T03:24:57.016Z,16.40
2019-05-20T03:27:26.744Z,16.30
2019-05-20T03:29:55.469Z,16.30
2019-05-20T03:32:24.189Z,16.20
2019-05-20T03:34:59.356Z,16.20
2019-05-20T03:37:23.403Z,16.10
2019-05-20T03:39:52.167Z,16.10
2019-05-20T03:42:22.440Z,16.00
2019-05-20T03:44:53.307Z,16.00
2019-05-20T03:47:22.041Z,16.00
2019-05-20T03:49:50.777Z,15.90
2019-05-20T03:52:20.285Z,16.00
2019-05-20T03:54:49.021Z,16.00
2019-05-20T03:57:17.746Z,16.00
2019-05-20T03:59:46.462Z,15.90
2019-05-20T04:02:15.214Z,16.00
2019-05-20T04:05:00.735Z,15.90
2019-05-20T04:07:14.452Z,15.90
2019-05-20T04:09:45.343Z,15.90
2019-05-20T04:12:17.819Z,15.90
2019-05-20T04:14:46.584Z,16.00
2019-05-20T04:17:15.584Z,16.10
2019-05-20T04:19:44.486Z,16.10
2019-05-20T04:22:13.245Z,16.10
2019-05-20T04:24:41.958Z,16.10
2019-05-20T04:27:10.696Z,16.20
2019-05-20T04:29:39.447Z,16.20
2019-05-20T04:32:08.145Z,16.20
2019-05-20T04:34:36.906Z,16.10
2019-05-20T04:37:05.754Z,16.10
2019-05-20T04:39:34.577Z,16.00
2019-05-20T04:42:06.457Z,15.80
2019-05-20T04:44:33.936Z,15.70
2019-05-20T04:47:03.012Z,15.50
2019-05-20T04:49:31.801Z,15.40
2019-05-20T04:52:00.530Z,15.30
2019-05-20T04:54:29.363Z,15.30
2019-05-20T04:56:58.238Z,15.30
2019-05-20T04:59:26.966Z,15.30
2019-05-20T05:01:55.780Z,15.40
2019-05-20T05:04:24.570Z,15.50
2019-05-20T05:06:53.287Z,15.70
2019-05-20T05:09:22.112Z,15.70
2019-05-20T05:11:50.861Z,15.80
2019-05-20T05:14:19.667Z,15.90
2019-05-20T05:16:48.383Z,15.80
2019-05-20T05:19:17.149Z,15.90
2019-05-20T05:21:45.958Z,16.00
2019-05-20T05:24:14.670Z,16.10
2019-05-20T05:26:43.432Z,16.20
2019-05-20T05:29:12.153Z,16.30
2019-05-20T05:31:40.879Z,16.60
2019-05-20T05:34:09.646Z,16.70
2019-05-20T05:36:38.339Z,16.90
2019-05-20T05:39:07.372Z,17.10
2019-05-20T05:41:36.147Z,17.30
2019-05-20T05:44:04.927Z,17.40
2019-05-20T05:46:33.735Z,17.60
2019-05-20T05:49:03.016Z,18.00
2019-05-20T05:51:31.770Z,18.40
2019-05-20T05:54:03.045Z,18.60
2019-05-20T05:56:31.754Z,18.70
2019-05-20T05:59:00.484Z,18.80
2019-05-20T06:01:29.365Z,18.90
2019-05-20T06:03:58.158Z,18.90
2019-05-20T06:06:26.865Z,19.00
2019-05-20T06:08:55.688Z,19.00
2019-05-20T06:11:24.506Z,18.80
2019-05-20T06:13:53.244Z,18.80
2019-05-20T06:16:36.125Z,18.90
2019-05-20T06:18:52.340Z,18.90
2019-05-20T06:21:21.063Z,18.80
2019-05-20T06:23:49.793Z,18.90
2019-05-20T06:26:18.506Z,19.00
2019-05-20T06:28:47.236Z,19.30
2019-05-20T06:31:16.123Z,19.30
2019-05-20T06:33:44.848Z,19.30
2019-05-20T06:36:26.056Z,19.50
2019-05-20T06:38:45.518Z,19.70
2019-05-20T06:41:14.353Z,19.80
2019-05-20T06:43:43.068Z,19.90
2019-05-20T06:46:11.789Z,20.00
2019-05-20T06:48:40.636Z,20.00
2019-05-20T06:51:09.485Z,20.10
2019-05-20T06:53:38.200Z,20.30
2019-05-20T06:56:06.930Z,20.40
2019-05-20T06:58:35.687Z,20.40
2019-05-20T07:01:04.457Z,20.50
2019-05-20T07:03:33.599Z,20.50
2019-05-20T07:06:02.310Z,20.40
2019-05-20T07:08:31.047Z,20.50
2019-05-20T07:10:59.811Z,20.70
2019-05-20T07:13:28.539Z,20.70
2019-05-20T07:15:57.262Z,20.60
2019-05-20T07:18:27.544Z,20.60
2019-05-20T07:20:56.421Z,20.70
2019-05-20T07:23:25.186Z,20.80
2019-05-20T07:25:53.927Z,20.80
2019-05-20T07:28:23.149Z,20.80
2019-05-20T07:30:51.862Z,21.00
2019-05-20T07:33:20.680Z,21.40
2019-05-20T07:35:49.388Z,21.70
2019-05-20T07:38:18.120Z,22.10
2019-05-20T07:40:46.833Z,22.30
2019-05-20T07:43:15.690Z,22.30
2019-05-20T07:45:45.121Z,22.50
2019-05-20T07:48:14.250Z,22.80
2019-05-20T07:50:44.154Z,22.60
2019-05-20T07:53:13.401Z,22.40
2019-05-20T07:55:47.729Z,22.30
2019-05-20T07:58:18.495Z,22.10
2019-05-20T08:00:47.410Z,22.20
2019-05-20T08:03:16.153Z,22.30
2019-05-20T08:05:45.075Z,22.30
2019-05-20T08:08:14.028Z,22.20
2019-05-20T08:10:42.936Z,22.30
2019-05-20T08:13:11.715Z,22.50
2019-05-20T08:15:40.512Z,22.90
2019-05-20T08:18:09.278Z,23.40
2019-05-20T08:20:38.010Z,23.20
2019-05-20T08:23:08.011Z,23.10
2019-05-20T08:25:36.652Z,23.10
2019-05-20T08:28:05.690Z,23.10
2019-05-20T08:30:36.812Z,23.30
2019-05-20T08:33:06.532Z,23.30
2019-05-20T08:35:35.419Z,23.30
2019-05-20T08:38:04.219Z,23.30
2019-05-20T08:40:32.945Z,23.50
2019-05-20T08:43:01.788Z,23.60
2019-05-20T08:45:30.503Z,23.80
2019-05-20T08:47:59.229Z,24.20
2019-05-20T08:50:29.047Z,24.30
2019-05-20T08:52:57.706Z,24.30
2019-05-20T08:55:26.446Z,24.30
2019-05-20T08:57:55.187Z,24.40
2019-05-20T09:00:24.681Z,24.60
2019-05-20T09:02:53.936Z,25.10
2019-05-20T09:05:22.796Z,25.30
2019-05-20T09:08:02.184Z,25.40
2019-05-20T09:10:22.105Z,25.40
2019-05-20T09:12:50.822Z,25.40
2019-05-20T09:15:19.810Z,25.20
2019-05-20T09:17:48.534Z,25.10
2019-05-20T09:20:18.060Z,25.10
2019-05-20T09:22:46.773Z,25.20
2019-05-20T09:25:16.484Z,25.30
2019-05-20T09:27:45.230Z,25.40
2019-05-20T09:30:14.470Z,25.40
2019-05-20T09:32:43.456Z,25.30
2019-05-20T09:35:12.334Z,25.40
2019-05-20T09:37:41.152Z,25.20
2019-05-20T09:40:10.285Z,25.30
2019-05-20T09:42:41.073Z,25.50
2019-05-20T09:45:10.399Z,25.80
2019-05-20T09:47:39.206Z,26.00
2019-05-20T09:50:08.124Z,26.10
2019-05-20T09:52:36.813Z,26.20
2019-05-20T09:55:07.200Z,26.10
2019-05-20T09:57:36.161Z,26.00
2019-05-20T10:00:07.137Z,25.90
2019-05-20T10:02:38.228Z,25.80
2019-05-20T10:05:07.000Z,26.00
2019-05-20T10:07:35.755Z,26.00
2019-05-20T10:10:07.123Z,26.00
2019-05-20T10:12:45.927Z,26.00
2019-05-20T10:15:07.734Z,26.00
2019-05-20T10:17:36.518Z,26.00
2019-05-20T10:20:09.497Z,26.30
2019-05-20T10:22:38.289Z,26.40
2019-05-20T10:25:08.619Z,26.50
2019-05-20T10:27:37.446Z,26.60
2019-05-20T10:30:08.549Z,26.80
2019-05-20T10:32:36.594Z,26.60
2019-05-20T10:35:07.676Z,26.70
2019-05-20T10:37:35.546Z,26.90
2019-05-20T10:40:07.987Z,27.10
2019-05-20T10:42:36.702Z,27.30
2019-05-20T10:45:06.257Z,27.40
2019-05-20T10:47:35.884Z,27.70
2019-05-20T10:50:06.379Z,27.70
2019-05-20T10:52:35.150Z,27.60
2019-05-20T10:55:05.027Z,27.50
2019-05-20T10:57:33.749Z,27.50
2019-05-20T11:00:02.504Z,27.40
2019-05-20T11:02:31.454Z,27.50
2019-05-20T11:05:00.277Z,27.50
2019-05-20T11:07:28.966Z,27.60
2019-05-20T11:09:57.689Z,27.50
2019-05-20T11:12:26.482Z,27.50
2019-05-20T11:14:55.185Z,27.70
2019-05-20T11:17:23.919Z,27.80
2019-05-20T11:19:52.676Z,27.70
2019-05-20T11:22:21.401Z,27.70
2019-05-20T11:24:50.163Z,27.60
2019-05-20T11:27:18.856Z,27.70
2019-05-20T11:29:47.574Z,27.60
2019-05-20T11:32:16.370Z,27.50
2019-05-20T11:34:45.206Z,27.30
2019-05-20T11:37:14.005Z,27.10
2019-05-20T11:39:42.781Z,26.90
2019-05-20T11:42:11.506Z,26.80
2019-05-20T11:44:40.283Z,26.80
2019-05-20T11:47:09.022Z,26.80
2019-05-20T11:49:37.911Z,26.90
2019-05-20T11:52:06.623Z,27.00
2019-05-20T11:54:35.447Z,27.00
2019-05-20T11:57:04.188Z,27.30
2019-05-20T11:59:32.913Z,27.40
2019-05-20T12:02:03.987Z,27.40
2019-05-20T12:04:32.051Z,27.40
2019-05-20T12:07:00.780Z,27.50
2019-05-20T12:09:29.587Z,27.50
2019-05-20T12:11:58.422Z,27.40
2019-05-20T12:14:27.146Z,27.50
2019-05-20T12:16:55.920Z,27.60
2019-05-20T12:19:24.660Z,27.80
2019-05-20T12:21:53.518Z,28.00
2019-05-20T12:24:22.232Z,28.10
2019-05-20T12:26:50.952Z,28.00
2019-05-20T12:29:19.674Z,27.90
2019-05-20T12:31:48.392Z,28.10
2019-05-20T12:34:17.135Z,28.20
2019-05-20T12:36:46.062Z,28.50
2019-05-20T12:39:14.908Z,28.80
2019-05-20T12:41:43.721Z,28.40
2019-05-20T12:44:13.195Z,28.10
2019-05-20T12:46:42.102Z,28.10
2019-05-20T12:49:10.927Z,28.00
2019-05-20T12:51:39.849Z,27.80
2019-05-20T12:54:08.566Z,27.70
2019-05-20T12:56:37.292Z,27.50
2019-05-20T12:59:06.084Z,27.60
2019-05-20T13:01:35.119Z,27.60
2019-05-20T13:04:04.068Z,27.60
2019-05-20T13:06:32.800Z,27.70
2019-05-20T13:09:01.528Z,27.60
2019-05-20T13:11:30.244Z,27.60
2019-05-20T13:13:59.034Z,27.40
2019-05-20T13:16:27.931Z,27.30
2019-05-20T13:18:58.118Z,27.40
2019-05-20T13:21:26.916Z,27.50
2019-05-20T13:23:57.477Z,27.50
2019-05-20T13:26:26.097Z,27.50
2019-05-20T13:28:59.152Z,27.70
2019-05-20T13:31:25.577Z,27.60
2019-05-20T13:33:54.455Z,27.90
2019-05-20T13:36:23.147Z,28.30
2019-05-20T13:38:53.096Z,28.50
2019-05-20T13:41:21.810Z,28.20
2019-05-20T13:43:52.828Z,28.30
2019-05-20T13:46:20.742Z,28.40
2019-05-20T13:48:49.554Z,28.50
2019-05-20T13:51:18.295Z,28.50
2019-05-20T13:53:47.012Z,28.50
2019-05-20T13:56:15.808Z,28.50
2019-05-20T13:58:44.631Z,28.50
2019-05-20T14:01:13.366Z,28.50
2019-05-20T14:03:42.084Z,28.40
2019-05-20T14:06:10.845Z,28.70
2019-05-20T14:08:39.601Z,28.30
2019-05-20T14:11:08.364Z,28.00
2019-05-20T14:13:37.666Z,28.00
2019-05-20T14:16:06.387Z,27.80
2019-05-20T14:18:35.141Z,27.50
2019-05-20T14:21:03.908Z,27.60
2019-05-20T14:23:32.675Z,27.80
2019-05-20T14:26:01.398Z,28.30
2019-05-20T14:28:30.136Z,28.80
2019-05-20T14:31:00.427Z,29.40
2019-05-20T14:33:29.202Z,29.30
2019-05-20T14:35:57.877Z,29.20
2019-05-20T14:38:26.689Z,29.30
2019-05-20T14:40:55.401Z,29.10
2019-05-20T14:43:25.277Z,29.20
2019-05-20T14:45:53.967Z,29.70
2019-05-20T14:48:22.684Z,29.70
2019-05-20T14:50:51.400Z,29.40
2019-05-20T14:53:20.140Z,29.00
2019-05-20T14:55:48.865Z,28.50
2019-05-20T14:58:17.598Z,28.30
2019-05-20T15:00:46.388Z,28.80
2019-05-20T15:03:15.173Z,28.90
2019-05-20T15:05:44.003Z,29.10
2019-05-20T15:08:12.738Z,28.50
2019-05-20T15:10:41.532Z,28.40
2019-05-20T15:13:10.283Z,28.30
2019-05-20T15:15:38.979Z,28.00
2019-05-20T15:18:07.813Z,27.70
2019-05-20T15:20:36.645Z,27.80
2019-05-20T15:23:05.376Z,27.80
2019-05-20T15:25:34.138Z,28.20
2019-05-20T15:28:02.953Z,28.40
2019-05-20T15:30:31.642Z,28.30
2019-05-20T15:33:00.365Z,28.30
2019-05-20T15:35:29.084Z,28.40
2019-05-20T15:37:58.648Z,28.50
2019-05-20T15:40:27.451Z,28.70
2019-05-20T15:42:56.350Z,28.80
2019-05-20T15:45:25.065Z,28.20
2019-05-20T15:47:53.783Z,27.80
2019-05-20T15:50:22.502Z,27.50
2019-05-20T15:52:51.297Z,27.60
2019-05-20T15:55:20.025Z,27.60
2019-05-20T15:57:48.816Z,27.70
2019-05-20T16:00:18.139Z,27.80
2019-05-20T16:02:46.858Z,28.00
2019-05-20T16:05:15.573Z,27.90
2019-05-20T16:07:44.321Z,28.00
2019-05-20T16:10:14.361Z,28.00
2019-05-20T16:12:43.099Z,27.90
2019-05-20T16:15:13.232Z,27.70
2019-05-20T16:17:41.924Z,27.50
2019-05-20T16:20:10.754Z,27.60
2019-05-20T16:22:39.582Z,27.50
2019-05-20T16:25:08.705Z,27.70
2019-05-20T16:27:37.421Z,27.70
2019-05-20T16:30:10.654Z,27.70
2019-05-20T16:32:39.481Z,27.70
2019-05-20T16:35:08.572Z,27.50
2019-05-20T16:37:37.314Z,27.50
2019-05-20T16:40:08.032Z,27.50
2019-05-20T16:42:36.847Z,27.40
2019-05-20T16:45:11.666Z,27.40
2019-05-20T16:47:38.640Z,27.30
2019-05-20T16:50:09.349Z,27.20
2019-05-20T16:52:38.708Z,27.20
2019-05-20T16:55:07.621Z,27.10
2019-05-20T16:57:36.414Z,27.10
2019-05-20T17:00:14.646Z,27.10
2019-05-20T17:02:36.876Z,26.90
2019-05-20T17:05:06.668Z,26.80
2019-05-20T17:07:35.401Z,26.60
2019-05-20T17:10:06.596Z,26.50
2019-05-20T17:12:35.397Z,26.50
2019-05-20T17:15:04.626Z,26.40
2019-05-20T17:17:33.381Z,26.30
2019-05-20T17:20:02.117Z,26.20
2019-05-20T17:22:31.047Z,26.10
2019-05-20T17:25:00.079Z,26.10
2019-05-20T17:27:28.798Z,26.00
2019-05-20T17:29:57.591Z,25.90
2019-05-20T17:32:26.318Z,25.80
2019-05-20T17:34:55.133Z,25.70
2019-05-20T17:37:24.019Z,25.70
2019-05-20T17:39:52.733Z,25.70
2019-05-20T17:42:21.477Z,25.60
2019-05-20T17:44:50.194Z,25.50
2019-05-20T17:47:19.020Z,25.40
2019-05-20T17:49:47.738Z,25.40
2019-05-20T17:52:16.464Z,25.20
2019-05-20T17:54:45.188Z,25.20
2019-05-20T17:57:13.904Z,25.20
2019-05-20T17:59:42.666Z,25.10
2019-05-20T18:02:12.752Z,25.00
2019-05-20T18:04:41.541Z,25.00
2019-05-20T18:07:10.415Z,24.90
2019-05-20T18:09:40.790Z,24.80
2019-05-20T18:12:11.287Z,24.80
2019-05-20T18:14:41.593Z,24.60
2019-05-20T18:17:11.453Z,24.60
2019-05-20T18:19:40.162Z,24.40
2019-05-20T18:22:08.900Z,24.30
2019-05-20T18:24:37.693Z,24.20
2019-05-20T18:27:06.594Z,24.10
2019-05-20T18:29:35.354Z,24.00
2019-05-20T18:32:04.271Z,23.90
2019-05-20T18:34:32.959Z,23.80
2019-05-20T18:37:01.702Z,23.70
2019-05-20T18:39:30.527Z,23.60
2019-05-20T18:41:59.340Z,23.50
2019-05-20T18:44:28.112Z,23.50
2019-05-20T18:46:56.889Z,23.40
2019-05-20T18:49:25.694Z,23.40
2019-05-20T18:51:54.402Z,23.30
2019-05-20T18:54:23.117Z,23.30
2019-05-20T18:56:51.879Z,23.30
2019-05-20T18:59:20.580Z,23.20
2019-05-20T19:02:03.909Z,23.10
2019-05-20T19:04:19.717Z,23.10
2019-05-20T19:06:48.436Z,23.10
2019-05-20T19:09:17.253Z,23.10
2019-05-20T19:11:46.053Z,23.10
2019-05-20T19:14:14.969Z,23.00
2019-05-20T19:16:43.720Z,23.00
2019-05-20T19:19:12.527Z,22.90
2019-05-20T19:21:41.335Z,22.90
2019-05-20T19:24:10.183Z,22.90
2019-05-20T19:26:38.916Z,22.90
2019-05-20T19:29:07.719Z,22.80
2019-05-20T19:31:36.461Z,22.80
2019-05-20T19:34:05.380Z,22.70
2019-05-20T19:36:34.121Z,22.70
2019-05-20T19:39:02.847Z,22.70
2019-05-20T19:41:31.564Z,22.70
2019-05-20T19:44:00.379Z,22.60
2019-05-20T19:46:31.658Z,22.60
2019-05-20T19:49:01.682Z,22.60
2019-05-20T19:51:30.570Z,22.60
2019-05-20T19:53:59.365Z,22.50
2019-05-20T19:56:28.226Z,22.40
2019-05-20T19:58:56.971Z,22.40
2019-05-20T20:01:25.793Z,22.30
2019-05-20T20:03:54.647Z,22.30
2019-05-20T20:06:24.835Z,22.30
2019-05-20T20:08:53.628Z,22.30
2019-05-20T20:11:22.453Z,22.20
2019-05-20T20:13:51.195Z,22.20
2019-05-20T20:16:19.912Z,22.20
2019-05-20T20:18:48.703Z,22.10
2019-05-20T20:21:17.595Z,22.00
2019-05-20T20:23:46.313Z,21.90
2019-05-20T20:26:15.111Z,21.80
2019-05-20T20:28:43.836Z,21.70
2019-05-20T20:31:12.687Z,21.60
2019-05-20T20:33:41.435Z,21.50
2019-05-20T20:36:10.235Z,21.40
2019-05-20T20:38:39.019Z,21.30
2019-05-20T20:41:07.820Z,21.30
2019-05-20T20:43:36.807Z,21.20
2019-05-20T20:46:07.588Z,21.10
2019-05-20T20:48:36.322Z,21.00
2019-05-20T20:51:05.205Z,20.80
2019-05-20T20:53:33.965Z,20.70
2019-05-20T20:56:02.958Z,20.60
2019-05-20T20:58:31.920Z,20.40
2019-05-20T21:01:00.670Z,20.30
2019-05-20T21:03:29.485Z,20.10
2019-05-20T21:05:58.274Z,19.80
2019-05-20T21:08:27.045Z,19.60
2019-05-20T21:10:56.188Z,19.50
2019-05-20T21:13:24.901Z,19.40
2019-05-20T21:15:53.809Z,19.40
2019-05-20T21:18:22.550Z,19.40
2019-05-20T21:20:51.288Z,19.20
2019-05-20T21:23:20.020Z,19.10
2019-05-20T21:25:50.738Z,19.10
2019-05-20T21:28:19.448Z,19.00
2019-05-20T21:30:48.162Z,19.00
2019-05-20T21:33:16.902Z,18.90
2019-05-20T21:35:45.758Z,18.80
2019-05-20T21:38:14.528Z,18.80
2019-05-20T21:40:43.327Z,18.80
2019-05-20T21:43:12.135Z,18.80
2019-05-20T21:45:40.849Z,18.80
2019-05-20T21:48:09.723Z,18.70
2019-05-20T21:50:38.433Z,18.70
2019-05-20T21:53:07.281Z,18.60
2019-05-20T21:55:36.101Z,18.50
2019-05-20T21:58:04.867Z,18.40
2019-05-20T22:00:38.522Z,18.30
2019-05-20T22:03:07.280Z,18.10
2019-05-20T22:05:36.020Z,18.00
2019-05-20T22:08:04.843Z,17.80
2019-05-20T22:10:33.593Z,17.70
2019-05-20T22:13:02.452Z,17.60
2019-05-20T22:15:31.321Z,17.50
2019-05-20T22:18:00.106Z,17.50
2019-05-20T22:20:28.845Z,17.40
2019-05-20T22:23:15.806Z,17.40
2019-05-20T22:25:46.499Z,17.40
2019-05-20T22:28:15.193Z,17.40
2019-05-20T22:30:43.998Z,17.40
2019-05-20T22:33:12.808Z,17.40
2019-05-20T22:35:41.534Z,17.40
2019-05-20T22:38:10.345Z,17.40
2019-05-20T22:40:39.074Z,17.40
2019-05-20T22:43:07.920Z,17.30
2019-05-20T22:45:36.649Z,17.30
2019-05-20T22:48:06.607Z,17.30
2019-05-20T22:50:35.371Z,17.30
2019-05-20T22:53:04.166Z,17.30
2019-05-20T22:55:32.892Z,17.30
2019-05-20T22:58:01.609Z,17.30
2019-05-20T23:00:30.353Z,17.30
2019-05-20T23:02:59.328Z,17.30
2019-05-20T23:05:28.038Z,17.30
2019-05-20T23:07:57.855Z,17.40
2019-05-20T23:10:28.499Z,17.40
2019-05-20T23:12:56.968Z,17.40
2019-05-20T23:15:25.754Z,17.40
2019-05-20T23:17:54.559Z,17.30
2019-05-20T23:20:23.486Z,17.30
2019-05-20T23:22:52.237Z,17.30
2019-05-20T23:25:20.968Z,17.40
2019-05-20T23:27:49.689Z,17.60
2019-05-20T23:30:18.640Z,17.70
2019-05-20T23:32:47.356Z,17.60
2019-05-20T23:35:16.110Z,17.70
2019-05-20T23:37:44.841Z,17.70
2019-05-20T23:40:13.637Z,17.70
2019-05-20T23:42:42.429Z,17.70
2019-05-20T23:45:12.448Z,17.70
2019-05-20T23:47:41.275Z,17.70
2019-05-20T23:50:10.400Z,17.70
2019-05-20T23:52:39.124Z,17.70
2019-05-20T23:55:08.769Z,17.60
2019-05-20T23:57:37.692Z,17.60
